sensor_id;sensor_type;location;lat;lon;timestamp;pressure;altitude;pressure_sealevel;temperature;humidity
69622;BME280;56841;55.964;37.674;2023-03-23T00:01:22;99271.38;;;5.34;63.67
69622;BME280;56841;55.964;37.674;2023-03-23T00:03:51;99276.63;;;5.34;63.95
69622;BME280;56841;55.964;37.674;2023-03-23T00:06:21;99273.47;;;5.30;64.07
69622;BME280;56841;55.964;37.674;2023-03-23T00:08:48;99258.41;;;5.32;64.14
69622;BME280;56841;55.964;37.674;2023-03-23T00:11:18;99255.38;;;5.37;64.01
69622;BME280;56841;55.964;37.674;2023-03-23T00:13:45;99254.69;;;5.35;64.06
69622;BME280;56841;55.964;37.674;2023-03-23T00:16:13;99257.59;;;5.32;64.15
69622;BME280;56841;55.964;37.674;2023-03-23T00:18:46;99253.34;;;5.31;64.20
69622;BME280;56841;55.964;37.674;2023-03-23T00:21:12;99257.44;;;5.33;64.38
69622;BME280;56841;55.964;37.674;2023-03-23T00:23:38;99247.13;;;5.32;64.22
69622;BME280;56841;55.964;37.674;2023-03-23T00:26:05;99252.06;;;5.35;64.22
69622;BME280;56841;55.964;37.674;2023-03-23T00:28:31;99242.31;;;5.37;64.31
69622;BME280;56841;55.964;37.674;2023-03-23T00:31:02;99244.06;;;5.36;64.05
69622;BME280;56841;55.964;37.674;2023-03-23T00:33:34;99248.34;;;5.37;64.19
69622;BME280;56841;55.964;37.674;2023-03-23T00:36:08;99248.19;;;5.39;64.31
69622;BME280;56841;55.964;37.674;2023-03-23T00:38:36;99246.56;;;5.38;64.09
69622;BME280;56841;55.964;37.674;2023-03-23T00:41:02;99242.53;;;5.43;64.20
69622;BME280;56841;55.964;37.674;2023-03-23T00:43:29;99241.44;;;5.36;64.22
69622;BME280;56841;55.964;37.674;2023-03-23T00:45:56;99234.28;;;5.38;64.38
69622;BME280;56841;55.964;37.674;2023-03-23T00:48:23;99236.47;;;5.43;64.38
69622;BME280;56841;55.964;37.674;2023-03-23T00:50:51;99230.69;;;5.39;64.26
69622;BME280;56841;55.964;37.674;2023-03-23T00:53:18;99228.75;;;5.41;64.12
69622;BME280;56841;55.964;37.674;2023-03-23T00:55:45;99229.59;;;5.42;64.20
69622;BME280;56841;55.964;37.674;2023-03-23T00:58:13;99232.63;;;5.47;63.91
69622;BME280;56841;55.964;37.674;2023-03-23T01:00:40;99230.66;;;5.49;64.05
69622;BME280;56841;55.964;37.674;2023-03-23T01:03:07;99229.84;;;5.49;64.07
69622;BME280;56841;55.964;37.674;2023-03-23T01:05:35;99227.06;;;5.50;63.89
69622;BME280;56841;55.964;37.674;2023-03-23T01:08:02;99222.66;;;5.51;64.04
69622;BME280;56841;55.964;37.674;2023-03-23T01:10:30;99229.31;;;5.45;64.03
69622;BME280;56841;55.964;37.674;2023-03-23T01:13:01;99227.50;;;5.45;63.78
69622;BME280;56841;55.964;37.674;2023-03-23T01:15:28;99222.50;;;5.52;63.87
69622;BME280;56841;55.964;37.674;2023-03-23T01:17:55;99219.66;;;5.45;64.20
69622;BME280;56841;55.964;37.674;2023-03-23T01:20:21;99217.19;;;5.44;64.21
69622;BME280;56841;55.964;37.674;2023-03-23T01:22:46;99217.03;;;5.45;64.27
69622;BME280;56841;55.964;37.674;2023-03-23T01:25:13;99212.06;;;5.42;64.43
69622;BME280;56841;55.964;37.674;2023-03-23T01:27:39;99211.78;;;5.45;64.50
69622;BME280;56841;55.964;37.674;2023-03-23T01:30:06;99212.22;;;5.41;64.84
69622;BME280;56841;55.964;37.674;2023-03-23T01:32:33;99210.88;;;5.37;64.98
69622;BME280;56841;55.964;37.674;2023-03-23T01:34:59;99205.66;;;5.37;65.08
69622;BME280;56841;55.964;37.674;2023-03-23T01:37:25;99198.75;;;5.36;65.33
69622;BME280;56841;55.964;37.674;2023-03-23T01:39:54;99200.69;;;5.34;65.34
69622;BME280;56841;55.964;37.674;2023-03-23T01:42:25;99191.34;;;5.21;65.79
69622;BME280;56841;55.964;37.674;2023-03-23T01:47:19;99190.28;;;5.14;66.09
69622;BME280;56841;55.964;37.674;2023-03-23T01:49:50;99181.91;;;5.11;66.29
69622;BME280;56841;55.964;37.674;2023-03-23T01:52:23;99181.19;;;5.09;66.63
69622;BME280;56841;55.964;37.674;2023-03-23T01:54:55;99179.31;;;5.01;66.67
69622;BME280;56841;55.964;37.674;2023-03-23T01:57:24;99176.56;;;5.03;66.84
69622;BME280;56841;55.964;37.674;2023-03-23T01:59:54;99173.69;;;4.96;67.07
69622;BME280;56841;55.964;37.674;2023-03-23T02:02:25;99173.81;;;4.94;67.14
69622;BME280;56841;55.964;37.674;2023-03-23T02:04:58;99168.88;;;4.91;67.31
69622;BME280;56841;55.964;37.674;2023-03-23T02:07:26;99158.97;;;4.85;67.43
69622;BME280;56841;55.964;37.674;2023-03-23T02:09:55;99150.72;;;4.80;67.77
69622;BME280;56841;55.964;37.674;2023-03-23T02:12:21;99160.50;;;4.78;68.05
69622;BME280;56841;55.964;37.674;2023-03-23T02:14:49;99151.00;;;4.77;68.08
69622;BME280;56841;55.964;37.674;2023-03-23T02:17:40;99151.00;;;4.77;68.26
69622;BME280;56841;55.964;37.674;2023-03-23T02:33:52;99154.03;;;4.82;68.25
69622;BME280;56841;55.964;37.674;2023-03-23T02:41:19;99155.16;;;4.80;68.24
69622;BME280;56841;55.964;37.674;2023-03-23T02:43:48;99158.44;;;4.82;68.38
69622;BME280;56841;55.964;37.674;2023-03-23T02:46:15;99162.19;;;4.79;68.32
69622;BME280;56841;55.964;37.674;2023-03-23T02:48:43;99161.34;;;4.79;68.39
69622;BME280;56841;55.964;37.674;2023-03-23T02:51:11;99160.66;;;4.77;68.56
69622;BME280;56841;55.964;37.674;2023-03-23T02:53:40;99161.09;;;4.72;68.80
69622;BME280;56841;55.964;37.674;2023-03-23T02:56:08;99161.09;;;4.72;68.75
69622;BME280;56841;55.964;37.674;2023-03-23T02:58:35;99144.56;;;4.71;68.87
69622;BME280;56841;55.964;37.674;2023-03-23T03:04:13;99152.84;;;4.67;69.09
69622;BME280;56841;55.964;37.674;2023-03-23T03:11:42;99142.94;;;4.61;69.24
69622;BME280;56841;55.964;37.674;2023-03-23T03:14:22;99150.09;;;4.59;69.41
69622;BME280;56841;55.964;37.674;2023-03-23T03:19:35;99142.09;;;4.60;69.33
69622;BME280;56841;55.964;37.674;2023-03-23T03:22:02;99141.44;;;4.58;69.20
69622;BME280;56841;55.964;37.674;2023-03-23T03:24:38;99144.19;;;4.57;69.45
69622;BME280;56841;55.964;37.674;2023-03-23T03:27:12;99140.88;;;4.55;69.36
69622;BME280;56841;55.964;37.674;2023-03-23T03:29:51;99133.88;;;4.55;69.44
69622;BME280;56841;55.964;37.674;2023-03-23T03:32:22;99135.63;;;4.55;69.35
69622;BME280;56841;55.964;37.674;2023-03-23T03:34:50;99137.31;;;4.56;69.36
69622;BME280;56841;55.964;37.674;2023-03-23T03:37:19;99139.78;;;4.57;69.32
69622;BME280;56841;55.964;37.674;2023-03-23T03:39:47;99139.78;;;4.57;69.38
69622;BME280;56841;55.964;37.674;2023-03-23T03:42:13;99135.38;;;4.58;69.41
69622;BME280;56841;55.964;37.674;2023-03-23T03:44:40;99136.06;;;4.60;69.51
69622;BME280;56841;55.964;37.674;2023-03-23T03:47:06;99132.88;;;4.66;69.55
69622;BME280;56841;55.964;37.674;2023-03-23T03:49:32;99125.97;;;4.65;69.41
69622;BME280;56841;55.964;37.674;2023-03-23T03:51:57;99120.34;;;4.69;69.47
69622;BME280;56841;55.964;37.674;2023-03-23T03:54:32;99121.16;;;4.70;69.31
69622;BME280;56841;55.964;37.674;2023-03-23T03:56:58;99126.25;;;4.71;69.53
69622;BME280;56841;55.964;37.674;2023-03-23T03:59:43;99124.59;;;4.70;69.41
69622;BME280;56841;55.964;37.674;2023-03-23T04:02:30;99124.47;;;4.72;69.56
69622;BME280;56841;55.964;37.674;2023-03-23T04:04:56;99126.66;;;4.77;69.55
69622;BME280;56841;55.964;37.674;2023-03-23T04:07:22;99121.13;;;4.80;69.51
69622;BME280;56841;55.964;37.674;2023-03-23T04:09:51;99124.56;;;4.80;69.37
69622;BME280;56841;55.964;37.674;2023-03-23T04:12:19;99124.41;;;4.82;69.59
69622;BME280;56841;55.964;37.674;2023-03-23T04:14:57;99121.25;;;4.88;69.35
69622;BME280;56841;55.964;37.674;2023-03-23T04:17:34;99123.72;;;4.89;69.60
69622;BME280;56841;55.964;37.674;2023-03-23T04:19:59;99125.38;;;4.90;69.50
69622;BME280;56841;55.964;37.674;2023-03-23T04:22:32;99126.59;;;4.96;69.62
69622;BME280;56841;55.964;37.674;2023-03-23T04:25:00;99124.81;;;4.96;69.71
69622;BME280;56841;55.964;37.674;2023-03-23T04:27:31;99129.88;;;4.98;69.64
69622;BME280;56841;55.964;37.674;2023-03-23T04:29:59;99127.25;;;4.98;69.55
69622;BME280;56841;55.964;37.674;2023-03-23T04:32:41;99117.91;;;4.95;69.62
69622;BME280;56841;55.964;37.674;2023-03-23T04:35:13;99118.69;;;5.06;69.44
69622;BME280;56841;55.964;37.674;2023-03-23T04:37:57;99118.13;;;5.12;69.56
69622;BME280;56841;55.964;37.674;2023-03-23T04:40:24;99116.84;;;5.16;69.47
69622;BME280;56841;55.964;37.674;2023-03-23T04:43:01;99128.16;;;5.16;69.43
69622;BME280;56841;55.964;37.674;2023-03-23T04:45:58;99125.56;;;5.16;69.51
69622;BME280;56841;55.964;37.674;2023-03-23T04:48:29;99128.53;;;5.21;69.35
69622;BME280;56841;55.964;37.674;2023-03-23T04:51:10;99136.25;;;5.23;69.43
69622;BME280;56841;55.964;37.674;2023-03-23T04:53:38;99132.50;;;5.26;69.47
69622;BME280;56841;55.964;37.674;2023-03-23T04:56:04;99142.16;;;5.25;69.64
69622;BME280;56841;55.964;37.674;2023-03-23T04:58:37;99132.09;;;5.30;69.36
69622;BME280;56841;55.964;37.674;2023-03-23T05:01:28;99121.47;;;5.32;69.56
69622;BME280;56841;55.964;37.674;2023-03-23T05:04:08;99135.63;;;5.39;69.45
69622;BME280;56841;55.964;37.674;2023-03-23T05:06:35;99129.28;;;5.41;69.65
69622;BME280;56841;55.964;37.674;2023-03-23T05:09:09;99134.34;;;5.43;69.53
69622;BME280;56841;55.964;37.674;2023-03-23T05:11:36;99130.91;;;5.42;69.65
69622;BME280;56841;55.964;37.674;2023-03-23T05:14:03;99122.47;;;5.49;69.58
69622;BME280;56841;55.964;37.674;2023-03-23T05:16:30;99122.47;;;5.49;69.60
69622;BME280;56841;55.964;37.674;2023-03-23T05:18:56;99137.44;;;5.56;69.48
69622;BME280;56841;55.964;37.674;2023-03-23T05:21:23;99132.06;;;5.58;69.55
69622;BME280;56841;55.964;37.674;2023-03-23T05:23:52;99134.69;;;5.58;69.51
69622;BME280;56841;55.964;37.674;2023-03-23T05:26:22;99134.06;;;5.64;69.34
69622;BME280;56841;55.964;37.674;2023-03-23T05:28:51;99137.09;;;5.69;69.36
69622;BME280;56841;55.964;37.674;2023-03-23T05:31:39;99127.66;;;5.76;69.13
69622;BME280;56841;55.964;37.674;2023-03-23T05:34:05;99125.88;;;5.77;69.24
69622;BME280;56841;55.964;37.674;2023-03-23T05:36:45;99113.53;;;5.87;68.76
69622;BME280;56841;55.964;37.674;2023-03-23T05:39:26;99123.88;;;5.88;68.77
69622;BME280;56841;55.964;37.674;2023-03-23T05:42:17;99133.75;;;5.94;68.52
69622;BME280;56841;55.964;37.674;2023-03-23T05:45:09;99130.25;;;6.04;68.29
69622;BME280;56841;55.964;37.674;2023-03-23T05:47:38;99128.00;;;6.09;68.25
69622;BME280;56841;55.964;37.674;2023-03-23T05:50:09;99123.66;;;6.17;68.02
69622;BME280;56841;55.964;37.674;2023-03-23T05:52:37;99125.81;;;6.22;67.83
69622;BME280;56841;55.964;37.674;2023-03-23T05:55:07;99120.13;;;6.27;67.71
69622;BME280;56841;55.964;37.674;2023-03-23T05:57:38;99123.72;;;6.26;67.85
69622;BME280;56841;55.964;37.674;2023-03-23T06:00:22;99134.28;;;6.34;67.36
69622;BME280;56841;55.964;37.674;2023-03-23T06:02:56;99133.44;;;6.33;67.28
69622;BME280;56841;55.964;37.674;2023-03-23T06:05:32;99125.63;;;6.41;67.11
69622;BME280;56841;55.964;37.674;2023-03-23T06:07:58;99125.81;;;6.40;66.96
69622;BME280;56841;55.964;37.674;2023-03-23T06:10:25;99127.44;;;6.41;66.84
69622;BME280;56841;55.964;37.674;2023-03-23T06:12:58;99118.50;;;6.52;66.96
69622;BME280;56841;55.964;37.674;2023-03-23T06:15:31;99118.88;;;6.57;66.81
69622;BME280;56841;55.964;37.674;2023-03-23T06:18:21;99122.97;;;6.59;66.53
69622;BME280;56841;55.964;37.674;2023-03-23T06:21:03;99123.66;;;6.61;66.75
69622;BME280;56841;55.964;37.674;2023-03-23T06:23:48;99120.25;;;6.69;66.24
69622;BME280;56841;55.964;37.674;2023-03-23T06:26:18;99115.50;;;6.73;66.28
69622;BME280;56841;55.964;37.674;2023-03-23T06:28:47;99121.47;;;6.83;66.16
69622;BME280;56841;55.964;37.674;2023-03-23T06:31:13;99112.66;;;6.84;66.05
69622;BME280;56841;55.964;37.674;2023-03-23T06:33:41;99122.28;;;6.83;66.00
69622;BME280;56841;55.964;37.674;2023-03-23T06:36:36;99121.09;;;7.04;65.78
69622;BME280;56841;55.964;37.674;2023-03-23T06:39:10;99116.63;;;6.96;65.52
69622;BME280;56841;55.964;37.674;2023-03-23T06:42:03;99114.06;;;7.04;65.34
69622;BME280;56841;55.964;37.674;2023-03-23T06:44:33;99109.97;;;7.10;65.26
69622;BME280;56841;55.964;37.674;2023-03-23T06:46:59;99119.13;;;7.06;65.05
69622;BME280;56841;55.964;37.674;2023-03-23T06:49:29;99108.66;;;7.14;64.88
69622;BME280;56841;55.964;37.674;2023-03-23T06:52:04;99110.31;;;7.15;64.84
69622;BME280;56841;55.964;37.674;2023-03-23T06:54:32;99108.03;;;7.20;64.61
69622;BME280;56841;55.964;37.674;2023-03-23T06:57:00;99106.28;;;7.29;64.26
69622;BME280;56841;55.964;37.674;2023-03-23T06:59:26;99111.53;;;7.37;64.41
69622;BME280;56841;55.964;37.674;2023-03-23T07:01:52;99111.84;;;7.34;64.13
69622;BME280;56841;55.964;37.674;2023-03-23T07:04:19;99110.56;;;7.38;64.08
69622;BME280;56841;55.964;37.674;2023-03-23T07:06:53;99127.50;;;7.44;63.68
69622;BME280;56841;55.964;37.674;2023-03-23T07:09:19;99093.84;;;7.47;63.66
69622;BME280;56841;55.964;37.674;2023-03-23T07:11:47;99098.97;;;7.57;63.46
69622;BME280;56841;55.964;37.674;2023-03-23T07:14:22;99106.84;;;7.65;63.38
69622;BME280;56841;55.964;37.674;2023-03-23T07:16:49;99100.94;;;7.63;63.03
69622;BME280;56841;55.964;37.674;2023-03-23T07:19:15;99101.28;;;7.68;63.19
69622;BME280;56841;55.964;37.674;2023-03-23T07:21:41;99098.19;;;7.73;62.85
69622;BME280;56841;55.964;37.674;2023-03-23T07:24:13;99092.56;;;7.76;62.67
69622;BME280;56841;55.964;37.674;2023-03-23T07:26:56;99100.50;;;7.84;62.23
69622;BME280;56841;55.964;37.674;2023-03-23T07:29:22;99094.59;;;7.90;62.10
69622;BME280;56841;55.964;37.674;2023-03-23T07:31:57;99087.03;;;7.95;61.97
69622;BME280;56841;55.964;37.674;2023-03-23T07:34:23;99084.88;;;8.15;61.60
69622;BME280;56841;55.964;37.674;2023-03-23T07:37:13;99091.16;;;8.14;61.27
69622;BME280;56841;55.964;37.674;2023-03-23T07:39:43;99085.06;;;8.14;60.60
69622;BME280;56841;55.964;37.674;2023-03-23T07:42:09;99077.81;;;8.16;60.75
69622;BME280;56841;55.964;37.674;2023-03-23T07:44:47;99068.91;;;8.33;60.48
69622;BME280;56841;55.964;37.674;2023-03-23T07:47:13;99064.34;;;8.43;60.32
69622;BME280;56841;55.964;37.674;2023-03-23T07:49:40;99056.44;;;8.43;60.03
69622;BME280;56841;55.964;37.674;2023-03-23T07:52:22;99069.75;;;8.50;60.10
69622;BME280;56841;55.964;37.674;2023-03-23T07:54:50;99061.00;;;8.58;59.68
69622;BME280;56841;55.964;37.674;2023-03-23T07:57:23;99070.00;;;8.80;59.34
69622;BME280;56841;55.964;37.674;2023-03-23T07:59:51;99071.16;;;8.77;58.81
69622;BME280;56841;55.964;37.674;2023-03-23T08:02:18;99080.69;;;8.86;58.72
69622;BME280;56841;55.964;37.674;2023-03-23T08:04:53;99075.44;;;8.86;58.64
69622;BME280;56841;55.964;37.674;2023-03-23T08:07:49;99061.13;;;8.81;58.28
69622;BME280;56841;55.964;37.674;2023-03-23T08:10:36;99067.19;;;8.89;58.51
69622;BME280;56841;55.964;37.674;2023-03-23T08:13:15;99063.22;;;8.93;58.14
69622;BME280;56841;55.964;37.674;2023-03-23T08:16:00;99055.13;;;8.95;57.72
69622;BME280;56841;55.964;37.674;2023-03-23T08:18:47;99051.50;;;9.04;58.02
69622;BME280;56841;55.964;37.674;2023-03-23T08:21:39;99054.41;;;9.09;57.58
69622;BME280;56841;55.964;37.674;2023-03-23T08:24:24;99038.41;;;9.19;57.77
69622;BME280;56841;55.964;37.674;2023-03-23T08:27:09;99020.97;;;9.18;56.97
69622;BME280;56841;55.964;37.674;2023-03-23T08:29:37;99038.13;;;9.14;57.22
69622;BME280;56841;55.964;37.674;2023-03-23T08:32:04;99032.09;;;9.28;57.50
69622;BME280;56841;55.964;37.674;2023-03-23T08:34:51;99026.63;;;9.38;56.36
69622;BME280;56841;55.964;37.674;2023-03-23T08:37:47;99031.44;;;9.26;56.34
69622;BME280;56841;55.964;37.674;2023-03-23T08:40:42;99020.88;;;9.34;56.26
69622;BME280;56841;55.964;37.674;2023-03-23T08:43:31;99000.91;;;9.63;56.19
69622;BME280;56841;55.964;37.674;2023-03-23T08:46:23;99007.13;;;9.70;55.83
69622;BME280;56841;55.964;37.674;2023-03-23T08:49:07;98997.16;;;9.80;55.27
69622;BME280;56841;55.964;37.674;2023-03-23T08:51:52;99002.19;;;9.90;55.21
69622;BME280;56841;55.964;37.674;2023-03-23T08:54:48;98997.81;;;9.97;55.31
69622;BME280;56841;55.964;37.674;2023-03-23T08:57:26;98997.66;;;9.99;54.92
69622;BME280;56841;55.964;37.674;2023-03-23T09:00:20;98968.19;;;9.95;54.04
69622;BME280;56841;55.964;37.674;2023-03-23T09:03:24;98984.75;;;10.04;54.14
69622;BME280;56841;55.964;37.674;2023-03-23T09:06:09;98984.28;;;10.15;54.14
69622;BME280;56841;55.964;37.674;2023-03-23T09:08:44;98981.75;;;10.07;54.44
69622;BME280;56841;55.964;37.674;2023-03-23T09:11:11;98974.03;;;10.20;54.03
69622;BME280;56841;55.964;37.674;2023-03-23T09:13:38;98978.97;;;10.23;53.69
69622;BME280;56841;55.964;37.674;2023-03-23T09:16:05;98976.91;;;10.33;53.98
69622;BME280;56841;55.964;37.674;2023-03-23T09:18:32;98976.13;;;10.25;53.43
69622;BME280;56841;55.964;37.674;2023-03-23T09:20:59;98962.13;;;10.39;53.27
69622;BME280;56841;55.964;37.674;2023-03-23T09:23:26;98955.63;;;10.50;53.17
69622;BME280;56841;55.964;37.674;2023-03-23T09:25:52;98950.31;;;10.64;52.95
69622;BME280;56841;55.964;37.674;2023-03-23T09:28:18;98949.94;;;10.53;52.58
69622;BME280;56841;55.964;37.674;2023-03-23T09:30:45;98948.41;;;10.43;52.87
69622;BME280;56841;55.964;37.674;2023-03-23T09:33:13;98953.44;;;10.53;52.62
69622;BME280;56841;55.964;37.674;2023-03-23T09:35:39;98945.31;;;10.55;52.45
69622;BME280;56841;55.964;37.674;2023-03-23T09:38:08;98939.47;;;10.59;52.39
69622;BME280;56841;55.964;37.674;2023-03-23T09:40:48;98930.44;;;10.68;52.36
69622;BME280;56841;55.964;37.674;2023-03-23T09:53:51;98911.31;;;10.81;51.78
69622;BME280;56841;55.964;37.674;2023-03-23T09:56:18;98913.22;;;10.87;51.18
69622;BME280;56841;55.964;37.674;2023-03-23T09:59:02;98917.56;;;10.95;51.10
69622;BME280;56841;55.964;37.674;2023-03-23T10:01:35;98903.84;;;11.06;51.35
69622;BME280;56841;55.964;37.674;2023-03-23T10:04:12;98907.38;;;11.13;51.05
69622;BME280;56841;55.964;37.674;2023-03-23T10:06:40;98902.53;;;11.38;50.52
69622;BME280;56841;55.964;37.674;2023-03-23T10:09:14;98902.13;;;11.42;50.59
69622;BME280;56841;55.964;37.674;2023-03-23T10:12:02;98894.47;;;11.47;50.40
69622;BME280;56841;55.964;37.674;2023-03-23T10:14:36;98888.47;;;11.38;50.02
69622;BME280;56841;55.964;37.674;2023-03-23T10:17:49;98882.63;;;11.43;49.49
69622;BME280;56841;55.964;37.674;2023-03-23T10:28:54;98871.16;;;11.57;49.35
69622;BME280;56841;55.964;37.674;2023-03-23T10:31:33;98878.59;;;11.75;49.05
69622;BME280;56841;55.964;37.674;2023-03-23T10:34:10;98878.84;;;11.80;48.59
69622;BME280;56841;55.964;37.674;2023-03-23T10:37:25;98882.00;;;11.90;48.69
69622;BME280;56841;55.964;37.674;2023-03-23T10:39:43;98870.91;;;11.80;47.99
69622;BME280;56841;55.964;37.674;2023-03-23T10:42:11;98882.84;;;11.97;48.30
69622;BME280;56841;55.964;37.674;2023-03-23T10:44:37;98881.78;;;11.92;47.48
69622;BME280;56841;55.964;37.674;2023-03-23T10:47:08;98879.66;;;11.80;47.73
69622;BME280;56841;55.964;37.674;2023-03-23T10:49:47;98877.69;;;11.89;47.96
69622;BME280;56841;55.964;37.674;2023-03-23T10:55:15;98882.84;;;11.97;47.63
69622;BME280;56841;55.964;37.674;2023-03-23T10:57:46;98888.88;;;11.84;47.67
69622;BME280;56841;55.964;37.674;2023-03-23T11:00:20;98882.91;;;12.04;47.38
69622;BME280;56841;55.964;37.674;2023-03-23T11:03:17;98893.44;;;11.97;47.43
69622;BME280;56841;55.964;37.674;2023-03-23T11:05:53;98890.25;;;12.08;47.31
69622;BME280;56841;55.964;37.674;2023-03-23T11:08:24;98885.97;;;12.07;47.25
69622;BME280;56841;55.964;37.674;2023-03-23T11:10:57;98882.56;;;12.20;46.96
69622;BME280;56841;55.964;37.674;2023-03-23T11:13:30;98883.81;;;12.24;46.93
69622;BME280;56841;55.964;37.674;2023-03-23T11:15:57;98888.63;;;12.07;47.30
69622;BME280;56841;55.964;37.674;2023-03-23T11:18:26;98881.06;;;12.04;47.04
69622;BME280;56841;55.964;37.674;2023-03-23T11:20:55;98880.47;;;12.09;46.99
69622;BME280;56841;55.964;37.674;2023-03-23T11:23:32;98869.25;;;12.00;47.23
69622;BME280;56841;55.964;37.674;2023-03-23T11:26:21;98885.94;;;12.01;47.46
69622;BME280;56841;55.964;37.674;2023-03-23T11:28:52;98874.16;;;12.03;47.54
69622;BME280;56841;55.964;37.674;2023-03-23T11:31:44;98875.34;;;12.01;47.58
69622;BME280;56841;55.964;37.674;2023-03-23T11:34:22;98890.59;;;11.99;47.63
69622;BME280;56841;55.964;37.674;2023-03-23T11:36:50;98879.28;;;12.12;47.61
69622;BME280;56841;55.964;37.674;2023-03-23T11:39:34;98880.47;;;12.09;47.39
69622;BME280;56841;55.964;37.674;2023-03-23T11:42:11;98880.84;;;12.06;47.66
69622;BME280;56841;55.964;37.674;2023-03-23T11:44:43;98875.81;;;12.11;47.52
69622;BME280;56841;55.964;37.674;2023-03-23T11:55:11;98875.19;;;12.09;47.65
69622;BME280;56841;55.964;37.674;2023-03-23T11:57:39;98876.53;;;11.98;47.90
69622;BME280;56841;55.964;37.674;2023-03-23T12:00:15;98881.72;;;12.13;47.72
69622;BME280;56841;55.964;37.674;2023-03-23T12:08:50;98866.13;;;11.90;48.62
69622;BME280;56841;55.964;37.674;2023-03-23T12:14:33;98866.72;;;11.64;49.17
69622;BME280;56841;55.964;37.674;2023-03-23T12:17:14;98863.53;;;11.75;49.41
69622;BME280;56841;55.964;37.674;2023-03-23T12:20:13;98869.00;;;11.67;49.42
69622;BME280;56841;55.964;37.674;2023-03-23T12:30:48;98861.97;;;11.81;49.48
69622;BME280;56841;55.964;37.674;2023-03-23T12:35:56;98842.31;;;11.90;49.03
69622;BME280;56841;55.964;37.674;2023-03-23T12:41:17;98845.78;;;11.91;49.01
69622;BME280;56841;55.964;37.674;2023-03-23T12:43:54;98845.66;;;11.77;49.50
69622;BME280;56841;55.964;37.674;2023-03-23T12:46:39;98835.50;;;11.81;49.50
69622;BME280;56841;55.964;37.674;2023-03-23T12:49:20;98836.50;;;11.73;49.79
69622;BME280;56841;55.964;37.674;2023-03-23T12:51:58;98825.69;;;11.75;49.73
69622;BME280;56841;55.964;37.674;2023-03-23T12:54:32;98829.75;;;11.71;49.77
69622;BME280;56841;55.964;37.674;2023-03-23T12:57:07;98830.59;;;11.78;49.66
69622;BME280;56841;55.964;37.674;2023-03-23T13:07:55;98836.31;;;11.81;49.59
69622;BME280;56841;55.964;37.674;2023-03-23T13:10:26;98815.78;;;11.83;49.26
69622;BME280;56841;55.964;37.674;2023-03-23T13:12:55;98817.53;;;11.98;49.16
69622;BME280;56841;55.964;37.674;2023-03-23T13:18:38;98809.91;;;12.29;48.30
69622;BME280;56841;55.964;37.674;2023-03-23T13:21:21;98808.44;;;12.20;48.57
69622;BME280;56841;55.964;37.674;2023-03-23T13:24:19;98808.00;;;12.03;48.73
69622;BME280;56841;55.964;37.674;2023-03-23T13:26:49;98801.44;;;11.99;49.15
69622;BME280;56841;55.964;37.674;2023-03-23T13:29:18;98811.13;;;11.85;49.27
69622;BME280;56841;55.964;37.674;2023-03-23T13:31:46;98804.16;;;11.78;49.87
69622;BME280;56841;55.964;37.674;2023-03-23T13:34:25;98808.44;;;11.79;49.59
69622;BME280;56841;55.964;37.674;2023-03-23T13:37:04;98789.75;;;11.80;49.58
69622;BME280;56841;55.964;37.674;2023-03-23T13:39:49;98783.06;;;11.84;49.57
69622;BME280;56841;55.964;37.674;2023-03-23T13:44:44;98776.75;;;11.85;49.63
69622;BME280;56841;55.964;37.674;2023-03-23T13:52:54;98776.44;;;12.02;49.20
69622;BME280;56841;55.964;37.674;2023-03-23T13:57:52;98770.84;;;11.83;49.87
69622;BME280;56841;55.964;37.674;2023-03-23T14:03:03;98756.09;;;11.68;50.42
69622;BME280;56841;55.964;37.674;2023-03-23T14:08:14;98760.09;;;11.57;50.62
69622;BME280;56841;55.964;37.674;2023-03-23T14:10:52;98774.25;;;11.43;50.97
69622;BME280;56841;55.964;37.674;2023-03-23T14:13:42;98771.19;;;11.39;51.13
69622;BME280;56841;55.964;37.674;2023-03-23T14:16:40;98758.56;;;11.41;51.12
69622;BME280;56841;55.964;37.674;2023-03-23T14:19:23;98760.41;;;11.41;51.10
69622;BME280;56841;55.964;37.674;2023-03-23T14:21:55;98766.25;;;11.29;51.24
69622;BME280;56841;55.964;37.674;2023-03-23T14:24:32;98752.44;;;11.34;51.38
69622;BME280;56841;55.964;37.674;2023-03-23T14:27:09;98744.28;;;11.29;51.58
69622;BME280;56841;55.964;37.674;2023-03-23T14:29:36;98732.25;;;11.26;51.65
69622;BME280;56841;55.964;37.674;2023-03-23T14:32:02;98734.66;;;11.21;51.73
69622;BME280;56841;55.964;37.674;2023-03-23T14:34:32;98732.66;;;11.23;51.91
69622;BME280;56841;55.964;37.674;2023-03-23T14:36:59;98739.56;;;11.24;51.83
69622;BME280;56841;55.964;37.674;2023-03-23T14:39:29;98744.06;;;11.30;51.87
69622;BME280;56841;55.964;37.674;2023-03-23T14:42:05;98740.19;;;11.26;51.97
69622;BME280;56841;55.964;37.674;2023-03-23T14:44:39;98730.22;;;11.22;52.00
69622;BME280;56841;55.964;37.674;2023-03-23T14:47:10;98728.56;;;11.21;52.01
69622;BME280;56841;55.964;37.674;2023-03-23T14:49:41;98745.53;;;11.33;52.01
69622;BME280;56841;55.964;37.674;2023-03-23T14:52:16;98735.69;;;11.20;52.29
69622;BME280;56841;55.964;37.674;2023-03-23T14:54:44;98748.22;;;11.11;52.55
69622;BME280;56841;55.964;37.674;2023-03-23T14:57:17;98749.91;;;11.19;52.33
69622;BME280;56841;55.964;37.674;2023-03-23T14:59:44;98749.81;;;11.06;52.47
69622;BME280;56841;55.964;37.674;2023-03-23T15:02:20;98747.38;;;11.04;52.72
69622;BME280;56841;55.964;37.674;2023-03-23T15:04:52;98754.16;;;10.92;53.16
69622;BME280;56841;55.964;37.674;2023-03-23T15:07:20;98752.09;;;10.87;53.52
69622;BME280;56841;55.964;37.674;2023-03-23T15:09:47;98748.44;;;10.88;53.55
69622;BME280;56841;55.964;37.674;2023-03-23T15:12:20;98757.38;;;10.87;53.66
69622;BME280;56841;55.964;37.674;2023-03-23T15:14:50;98745.00;;;10.88;53.74
69622;BME280;56841;55.964;37.674;2023-03-23T15:17:24;98747.69;;;10.95;53.86
69622;BME280;56841;55.964;37.674;2023-03-23T15:19:52;98745.16;;;10.86;53.88
69622;BME280;56841;55.964;37.674;2023-03-23T15:22:29;98743.91;;;10.82;54.05